sensor_id;sensor_type;location;lat;lon;timestamp;pressure;altitude;pressure_sealevel;temperature;humidity
50696;BME280;36665;51.786;21.594;2022-09-09T00:03:17;94175.17;;;10.41;50.37
50696;BME280;36665;51.786;21.594;2022-09-09T00:11:47;94156.42;;;10.36;50.55
50696;BME280;36665;51.786;21.594;2022-09-09T00:37:35;94100.36;;;10.23;50.41
50696;BME280;36665;51.786;21.594;2022-09-09T00:46:30;94111.39;;;10.26;50.54
50696;BME280;36665;51.786;21.594;2022-09-09T01:04:08;94134.44;;;10.32;50.66
50696;BME280;36665;51.786;21.594;2022-09-09T01:21:22;94090.70;;;10.20;50.70
50696;BME280;36665;51.786;21.594;2022-09-09T01:29:51;94089.33;;;10.20;50.77
50696;BME280;36665;51.786;21.594;2022-09-09T01:38:15;94106.16;;;10.25;50.78
50696;BME280;36665;51.786;21.594;2022-09-09T01:46:39;94122.83;;;10.29;50.97
50696;BME280;36665;51.786;21.594;2022-09-09T01:55:09;94138.54;;;10.34;50.94
50696;BME280;36665;51.786;21.594;2022-09-09T02:03:35;94157.20;;;10.38;50.92
50696;BME280;36665;51.786;21.594;2022-09-09T02:12:14;94173.56;;;10.42;51.31
50696;BME280;36665;51.786;21.594;2022-09-09T02:20:46;94188.97;;;10.46;51.13
50696;BME280;36665;51.786;21.594;2022-09-09T02:29:14;94185.42;;;10.45;51.24
50696;BME280;36665;51.786;21.594;2022-09-09T02:37:42;94196.14;;;10.47;51.14
50696;BME280;36665;51.786;21.594;2022-09-09T02:46:34;94234.84;;;10.58;51.33
50696;BME280;36665;51.786;21.594;2022-09-09T02:55:07;94281.01;;;10.71;51.55
50696;BME280;36665;51.786;21.594;2022-09-09T03:03:34;94295.09;;;10.74;51.61
50696;BME280;36665;51.786;21.594;2022-09-09T03:12:01;94326.58;;;10.82;51.71
50696;BME280;36665;51.786;21.594;2022-09-09T03:20:29;94336.67;;;10.85;51.84
50696;BME280;36665;51.786;21.594;2022-09-09T03:28:52;94353.63;;;10.88;51.86
50696;BME280;36665;51.786;21.594;2022-09-09T03:37:20;94370.29;;;10.92;52.04
50696;BME280;36665;51.786;21.594;2022-09-09T03:45:48;94397.86;;;10.99;51.98
50696;BME280;36665;51.786;21.594;2022-09-09T03:54:11;94410.13;;;11.02;52.23
50696;BME280;36665;51.786;21.594;2022-09-09T04:02:34;94441.45;;;11.10;52.36
50696;BME280;36665;51.786;21.594;2022-09-09T04:10:58;94464.06;;;11.15;52.33
50696;BME280;36665;51.786;21.594;2022-09-09T04:19:21;94499.85;;;11.24;52.44
50696;BME280;36665;51.786;21.594;2022-09-09T04:27:45;94505.88;;;11.25;52.58
50696;BME280;36665;51.786;21.594;2022-09-09T04:36:08;94546.33;;;11.36;52.71
50696;BME280;36665;51.786;21.594;2022-09-09T04:44:32;94590.03;;;11.48;52.74
50696;BME280;36665;51.786;21.594;2022-09-09T04:52:55;94591.45;;;11.47;52.90
50696;BME280;36665;51.786;21.594;2022-09-09T05:01:20;94596.05;;;11.48;53.07
50696;BME280;36665;51.786;21.594;2022-09-09T05:09:49;94615.20;;;11.52;53.00
50696;BME280;36665;51.786;21.594;2022-09-09T05:18:13;94615.48;;;11.52;53.19
50696;BME280;36665;51.786;21.594;2022-09-09T05:26:37;94592.04;;;11.46;53.20
50696;BME280;36665;51.786;21.594;2022-09-09T05:35:00;94595.61;;;11.46;53.36
50696;BME280;36665;51.786;21.594;2022-09-09T05:43:24;94632.20;;;11.54;53.43
50696;BME280;36665;51.786;21.594;2022-09-09T05:51:48;94671.36;;;11.65;53.52
50696;BME280;36665;51.786;21.594;2022-09-09T06:00:14;94671.45;;;11.64;53.85
50696;BME280;36665;51.786;21.594;2022-09-09T06:08:42;94707.92;;;11.74;53.73
50696;BME280;36665;51.786;21.594;2022-09-09T06:17:08;94750.38;;;11.84;54.07
50696;BME280;36665;51.786;21.594;2022-09-09T06:25:32;94796.88;;;11.96;53.90
50696;BME280;36665;51.786;21.594;2022-09-09T06:33:58;94815.91;;;12.01;54.14
50696;BME280;36665;51.786;21.594;2022-09-09T06:42:21;94842.39;;;12.07;54.12
50696;BME280;36665;51.786;21.594;2022-09-09T06:50:44;94896.94;;;12.20;54.48
50696;BME280;36665;51.786;21.594;2022-09-09T06:59:07;94986.79;;;12.44;54.52
50696;BME280;36665;51.786;21.594;2022-09-09T07:07:32;95036.14;;;12.56;54.57
50696;BME280;36665;51.786;21.594;2022-09-09T07:16:04;95057.27;;;12.60;54.80
50696;BME280;36665;51.786;21.594;2022-09-09T07:24:28;95086.45;;;12.67;54.97
50696;BME280;36665;51.786;21.594;2022-09-09T07:32:53;95073.20;;;12.63;54.91
50696;BME280;36665;51.786;21.594;2022-09-09T07:41:19;95061.83;;;12.59;54.92
50696;BME280;36665;51.786;21.594;2022-09-09T07:49:44;95032.65;;;12.51;55.07
50696;BME280;36665;51.786;21.594;2022-09-09T07:58:11;95023.19;;;12.48;55.30
50696;BME280;36665;51.786;21.594;2022-09-09T08:06:37;95041.31;;;12.52;55.25
50696;BME280;36665;51.786;21.594;2022-09-09T08:15:00;95082.99;;;12.62;55.35
50696;BME280;36665;51.786;21.594;2022-09-09T08:23:25;95095.80;;;12.65;55.60
50696;BME280;36665;51.786;21.594;2022-09-09T08:31:51;95144.25;;;12.77;55.77
50696;BME280;36665;51.786;21.594;2022-09-09T08:40:22;95201.73;;;12.92;55.88
50696;BME280;36665;51.786;21.594;2022-09-09T08:48:58;95287.41;;;13.13;56.13
50696;BME280;36665;51.786;21.594;2022-09-09T08:57:27;95304.16;;;13.17;56.10
50696;BME280;36665;51.786;21.594;2022-09-09T09:06:23;95286.88;;;13.11;56.21
50696;BME280;36665;51.786;21.594;2022-09-09T09:14:50;95264.70;;;13.04;56.48
50696;BME280;36665;51.786;21.594;2022-09-09T09:23:25;95270.69;;;13.05;56.26
50696;BME280;36665;51.786;21.594;2022-09-09T09:31:56;95324.08;;;13.18;56.47
50696;BME280;36665;51.786;21.594;2022-09-09T09:40:25;95348.36;;;13.24;56.76
50696;BME280;36665;51.786;21.594;2022-09-09T09:49:05;95344.66;;;13.21;56.86
50696;BME280;36665;51.786;21.594;2022-09-09T09:57:33;95360.71;;;13.26;56.83
50696;BME280;36665;51.786;21.594;2022-09-09T10:06:00;95367.16;;;13.26;56.95
50696;BME280;36665;51.786;21.594;2022-09-09T10:23:05;95378.38;;;13.28;57.34
50696;BME280;36665;51.786;21.594;2022-09-09T10:31:54;95405.02;;;13.35;57.53
50696;BME280;36665;51.786;21.594;2022-09-09T10:40:39;95453.55;;;13.45;57.55
50696;BME280;36665;51.786;21.594;2022-09-09T10:58:00;95453.57;;;13.43;57.71
50696;BME280;36665;51.786;21.594;2022-09-09T11:06:33;95498.55;;;13.55;57.77
50696;BME280;36665;51.786;21.594;2022-09-09T11:15:08;95507.55;;;13.56;58.01
50696;BME280;36665;51.786;21.594;2022-09-09T11:23:44;95499.80;;;13.55;58.21
50696;BME280;36665;51.786;21.594;2022-09-09T11:40:46;95519.92;;;13.57;58.20
50696;BME280;36665;51.786;21.594;2022-09-09T11:58:02;95488.52;;;13.47;58.37
50696;BME280;36665;51.786;21.594;2022-09-09T12:06:31;95529.02;;;13.57;58.59
50696;BME280;36665;51.786;21.594;2022-09-09T12:32:23;95600.77;;;13.74;58.72
50696;BME280;36665;51.786;21.594;2022-09-09T12:40:55;95625.58;;;13.79;59.18
50696;BME280;36665;51.786;21.594;2022-09-09T12:49:32;95611.23;;;13.74;59.10
50696;BME280;36665;51.786;21.594;2022-09-09T12:57:58;95596.50;;;13.70;59.13
50696;BME280;36665;51.786;21.594;2022-09-09T13:06:30;95564.02;;;13.61;59.43
50696;BME280;36665;51.786;21.594;2022-09-09T13:14:55;95531.41;;;13.53;59.24
50696;BME280;36665;51.786;21.594;2022-09-09T13:23:21;95524.95;;;13.50;59.29
50696;BME280;36665;51.786;21.594;2022-09-09T13:31:44;95532.14;;;13.53;59.66
50696;BME280;36665;51.786;21.594;2022-09-09T13:40:19;95531.58;;;13.52;59.65
50696;BME280;36665;51.786;21.594;2022-09-09T13:48:54;95573.52;;;13.61;59.66
50696;BME280;36665;51.786;21.594;2022-09-09T13:57:22;95672.31;;;13.86;59.81
50696;BME280;36665;51.786;21.594;2022-09-09T14:05:46;95743.38;;;14.02;59.83
50696;BME280;36665;51.786;21.594;2022-09-09T14:14:09;95742.57;;;14.02;60.16
50696;BME280;36665;51.786;21.594;2022-09-09T14:22:32;95718.53;;;13.95;60.16
50696;BME280;36665;51.786;21.594;2022-09-09T14:30:59;95715.30;;;13.93;60.42
50696;BME280;36665;51.786;21.594;2022-09-09T14:39:23;95695.05;;;13.87;60.34
50696;BME280;36665;51.786;21.594;2022-09-09T14:47:46;95688.54;;;13.85;60.73
50696;BME280;36665;51.786;21.594;2022-09-09T14:56:13;95640.48;;;13.72;60.47
50696;BME280;36665;51.786;21.594;2022-09-09T15:04:37;95594.86;;;13.59;60.53
50696;BME280;36665;51.786;21.594;2022-09-09T15:13:00;95578.54;;;13.56;60.63
50696;BME280;36665;51.786;21.594;2022-09-09T15:21:26;95591.67;;;13.57;60.84
50696;BME280;36665;51.786;21.594;2022-09-09T15:29:50;95588.87;;;13.57;60.73
50696;BME280;36665;51.786;21.594;2022-09-09T15:38:14;95590.63;;;13.56;61.17
50696;BME280;36665;51.786;21.594;2022-09-09T15:46:39;95559.11;;;13.47;60.88
50696;BME280;36665;51.786;21.594;2022-09-09T15:55:04;95542.02;;;13.44;61.14
50696;BME280;36665;51.786;21.594;2022-09-09T16:03:27;95528.52;;;13.38;61.25
50696;BME280;36665;51.786;21.594;2022-09-09T16:11:50;95493.55;;;13.29;61.27
50696;BME280;36665;51.786;21.594;2022-09-09T16:20:14;95467.57;;;13.21;61.25
50696;BME280;36665;51.786;21.594;2022-09-09T16:28:37;95449.95;;;13.16;61.33
50696;BME280;36665;51.786;21.594;2022-09-09T16:37:00;95451.21;;;13.16;61.47
50696;BME280;36665;51.786;21.594;2022-09-09T16:45:24;95441.80;;;13.13;61.73
50696;BME280;36665;51.786;21.594;2022-09-09T16:53:47;95397.70;;;13.02;61.61
50696;BME280;36665;51.786;21.594;2022-09-09T17:02:10;95354.81;;;12.91;61.68
50696;BME280;36665;51.786;21.594;2022-09-09T17:10:34;95340.17;;;12.86;61.68
50696;BME280;36665;51.786;21.594;2022-09-09T17:19:03;95352.10;;;12.89;61.90
50696;BME280;36665;51.786;21.594;2022-09-09T17:27:26;95356.60;;;12.89;61.93
50696;BME280;36665;51.786;21.594;2022-09-09T17:35:49;95351.23;;;12.87;62.04
50696;BME280;36665;51.786;21.594;2022-09-09T17:44:12;95361.71;;;12.89;62.10
50696;BME280;36665;51.786;21.594;2022-09-09T17:52:36;95377.70;;;12.93;62.17
50696;BME280;36665;51.786;21.594;2022-09-09T18:01:10;95385.27;;;12.94;62.48
50696;BME280;36665;51.786;21.594;2022-09-09T18:09:34;95387.34;;;12.94;62.49
50696;BME280;36665;51.786;21.594;2022-09-09T18:17:57;95378.38;;;12.91;62.58
50696;BME280;36665;51.786;21.594;2022-09-09T18:26:25;95367.23;;;12.89;62.64
50696;BME280;36665;51.786;21.594;2022-09-09T18:34:49;95348.24;;;12.82;62.59
50696;BME280;36665;51.786;21.594;2022-09-09T18:43:17;95330.44;;;12.78;62.62
50696;BME280;36665;51.786;21.594;2022-09-09T18:51:42;95336.72;;;12.78;62.64
50696;BME280;36665;51.786;21.594;2022-09-09T19:00:07;95341.50;;;12.79;62.76
50696;BME280;36665;51.786;21.594;2022-09-09T19:08:40;95334.42;;;12.77;63.09
50696;BME280;36665;51.786;21.594;2022-09-09T19:17:04;95330.36;;;12.75;63.02
50696;BME280;36665;51.786;21.594;2022-09-09T19:25:27;95338.80;;;12.77;63.09
50696;BME280;36665;51.786;21.594;2022-09-09T19:33:52;95350.63;;;12.79;63.28
50696;BME280;36665;51.786;21.594;2022-09-09T19:42:17;95372.39;;;12.84;63.55
50696;BME280;36665;51.786;21.594;2022-09-09T19:50:40;95383.69;;;12.87;63.46
50696;BME280;36665;51.786;21.594;2022-09-09T19:59:05;95374.23;;;12.83;63.45
50696;BME280;36665;51.786;21.594;2022-09-09T20:07:28;95361.13;;;12.79;63.50
50696;BME280;36665;51.786;21.594;2022-09-09T20:15:59;95307.22;;;12.65;63.72
50696;BME280;36665;51.786;21.594;2022-09-09T20:24:22;95271.20;;;12.55;63.65
50696;BME280;36665;51.786;21.594;2022-09-09T20:32:46;95263.31;;;12.53;63.79
50696;BME280;36665;51.786;21.594;2022-09-09T20:41:11;95225.38;;;12.43;63.63
50696;BME280;36665;51.786;21.594;2022-09-09T20:49:36;95179.44;;;12.30;63.61
50696;BME280;36665;51.786;21.594;2022-09-09T20:58:00;95150.88;;;12.22;64.01
50696;BME280;36665;51.786;21.594;2022-09-09T21:06:23;95126.55;;;12.17;63.87
50696;BME280;36665;51.786;21.594;2022-09-09T21:14:46;95109.48;;;12.11;63.95
50696;BME280;36665;51.786;21.594;2022-09-09T21:23:11;95116.90;;;12.13;64.27
50696;BME280;36665;51.786;21.594;2022-09-09T21:31:34;95123.87;;;12.13;64.10
50696;BME280;36665;51.786;21.594;2022-09-09T21:39:57;95110.34;;;12.10;64.15
50696;BME280;36665;51.786;21.594;2022-09-09T21:48:21;95079.12;;;12.02;64.42
50696;BME280;36665;51.786;21.594;2022-09-09T21:56:48;95081.09;;;12.03;64.27
50696;BME280;36665;51.786;21.594;2022-09-09T22:05:12;95103.25;;;12.06;64.47
50696;BME280;36665;51.786;21.594;2022-09-09T22:13:36;95122.92;;;12.11;64.46
50696;BME280;36665;51.786;21.594;2022-09-09T22:22:04;95130.88;;;12.14;64.57
50696;BME280;36665;51.786;21.594;2022-09-09T22:30:26;95101.00;;;12.05;64.76
50696;BME280;36665;51.786;21.594;2022-09-09T22:38:51;95070.25;;;11.98;64.81
50696;BME280;36665;51.786;21.594;2022-09-09T22:47:14;95044.23;;;11.90;64.90
50696;BME280;36665;51.786;21.594;2022-09-09T22:55:37;95040.94;;;11.89;65.03
50696;BME280;36665;51.786;21.594;2022-09-09T23:04:00;95041.30;;;11.89;64.93
50696;BME280;36665;51.786;21.594;2022-09-09T23:12:24;95039.89;;;11.88;64.92
50696;BME280;36665;51.786;21.594;2022-09-09T23:20:55;95031.38;;;11.85;65.19
50696;BME280;36665;51.786;21.594;2022-09-09T23:29:22;95006.52;;;11.78;65.21
50696;BME280;36665;51.786;21.594;2022-09-09T23:37:45;94998.89;;;11.76;65.27
50696;BME280;36665;51.786;21.594;2022-09-09T23:46:10;94986.79;;;11.73;65.35
50696;BME280;36665;51.786;21.594;2022-09-09T23:54:35;95005.12;;;11.77;65.36
